Terminal Aerodrome Forecast
Issued by NWS

Home | Current Version | Previous Version | Graphics & Text | Print | Product List | Glossary On
Versions: 1 2 3 4 5 6 7 8 9 10 11 12 13 14 15 16 17 18 19
000
FTUS43 KGRB 232200 AAB
TAFMTW
TAF AMD
KMTW 232202Z 2322/2418 17009KT 6SM -SHRA SCT028 OVC040
     FM232300 19006KT 4SM -SHRA BR OVC020
     FM240200 24004KT 4SM BR BKN012
     FM240800 VRB03KT 3/4SM BR SCT003
     FM241400 24003KT 5SM BR BKN008=

USA.gov is the U.S. government's official web portal to all federal, state and local government web resources and services.